sensor_id;sensor_type;location;lat;lon;timestamp;temperature;humidity
56542;DHT22;42438;53.174;6.730;2023-08-30T00:01:52;13.40;99.90
56542;DHT22;42438;53.174;6.730;2023-08-30T00:04:23;13.40;99.90
56542;DHT22;42438;53.174;6.730;2023-08-30T00:06:53;13.40;99.90
56542;DHT22;42438;53.174;6.730;2023-08-30T00:09:24;13.50;99.90
56542;DHT22;42438;53.174;6.730;2023-08-30T00:11:55;13.40;99.90
56542;DHT22;42438;53.174;6.730;2023-08-30T00:14:26;13.30;99.90
56542;DHT22;42438;53.174;6.730;2023-08-30T00:16:56;13.30;99.90
56542;DHT22;42438;53.174;6.730;2023-08-30T00:19:27;13.30;99.90
56542;DHT22;42438;53.174;6.730;2023-08-30T00:21:58;13.30;99.90
56542;DHT22;42438;53.174;6.730;2023-08-30T00:24:28;13.30;99.90
56542;DHT22;42438;53.174;6.730;2023-08-30T00:27:00;13.20;99.90
56542;DHT22;42438;53.174;6.730;2023-08-30T00:29:31;13.10;99.90
56542;DHT22;42438;53.174;6.730;2023-08-30T00:32:02;13.10;99.90
56542;DHT22;42438;53.174;6.730;2023-08-30T00:34:33;13.20;99.90
56542;DHT22;42438;53.174;6.730;2023-08-30T00:37:04;13.20;99.90
56542;DHT22;42438;53.174;6.730;2023-08-30T00:39:37;13.10;99.90
56542;DHT22;42438;53.174;6.730;2023-08-30T00:42:08;13.10;99.90
56542;DHT22;42438;53.174;6.730;2023-08-30T00:44:39;13.10;99.90
56542;DHT22;42438;53.174;6.730;2023-08-30T00:47:11;13.10;99.90
56542;DHT22;42438;53.174;6.730;2023-08-30T00:49:42;13.20;99.90
56542;DHT22;42438;53.174;6.730;2023-08-30T00:52:12;13.10;99.90
56542;DHT22;42438;53.174;6.730;2023-08-30T00:54:43;13.20;99.90
56542;DHT22;42438;53.174;6.730;2023-08-30T00:57:14;13.20;1.00
56542;DHT22;42438;53.174;6.730;2023-08-30T00:59:45;13.20;1.00
56542;DHT22;42438;53.174;6.730;2023-08-30T01:02:15;13.20;1.00
56542;DHT22;42438;53.174;6.730;2023-08-30T01:04:46;13.30;1.00
56542;DHT22;42438;53.174;6.730;2023-08-30T01:07:17;13.20;1.00
56542;DHT22;42438;53.174;6.730;2023-08-30T01:09:49;13.20;1.00
56542;DHT22;42438;53.174;6.730;2023-08-30T01:12:29;13.20;1.00
56542;DHT22;42438;53.174;6.730;2023-08-30T01:15:09;13.20;1.00
56542;DHT22;42438;53.174;6.730;2023-08-30T01:17:42;13.20;1.00
56542;DHT22;42438;53.174;6.730;2023-08-30T01:20:15;13.10;1.00
56542;DHT22;42438;53.174;6.730;2023-08-30T01:23:03;13.20;1.00
56542;DHT22;42438;53.174;6.730;2023-08-30T01:28:26;13.10;1.00
56542;DHT22;42438;53.174;6.730;2023-08-30T01:30:59;13.10;1.00
56542;DHT22;42438;53.174;6.730;2023-08-30T01:33:31;13.00;1.00
56542;DHT22;42438;53.174;6.730;2023-08-30T01:36:03;13.10;1.00
56542;DHT22;42438;53.174;6.730;2023-08-30T01:38:35;13.10;1.00
56542;DHT22;42438;53.174;6.730;2023-08-30T01:41:07;13.00;1.00
56542;DHT22;42438;53.174;6.730;2023-08-30T01:43:38;13.00;1.00
56542;DHT22;42438;53.174;6.730;2023-08-30T01:46:09;13.00;1.00
56542;DHT22;42438;53.174;6.730;2023-08-30T01:48:41;13.10;1.00
56542;DHT22;42438;53.174;6.730;2023-08-30T01:51:15;13.00;1.00
56542;DHT22;42438;53.174;6.730;2023-08-30T01:53:48;12.90;1.00
56542;DHT22;42438;53.174;6.730;2023-08-30T01:56:20;13.00;1.00
56542;DHT22;42438;53.174;6.730;2023-08-30T01:58:50;12.90;1.00
56542;DHT22;42438;53.174;6.730;2023-08-30T02:01:21;12.90;1.00
56542;DHT22;42438;53.174;6.730;2023-08-30T02:03:52;12.90;1.00
56542;DHT22;42438;53.174;6.730;2023-08-30T02:06:30;12.90;1.00
56542;DHT22;42438;53.174;6.730;2023-08-30T02:09:24;12.90;1.00
56542;DHT22;42438;53.174;6.730;2023-08-30T02:11:57;12.90;1.00
56542;DHT22;42438;53.174;6.730;2023-08-30T02:14:30;12.90;1.00
56542;DHT22;42438;53.174;6.730;2023-08-30T02:17:02;12.90;1.00
56542;DHT22;42438;53.174;6.730;2023-08-30T02:19:34;12.80;1.00
56542;DHT22;42438;53.174;6.730;2023-08-30T02:22:04;12.80;1.00
56542;DHT22;42438;53.174;6.730;2023-08-30T02:24:35;12.80;1.00
56542;DHT22;42438;53.174;6.730;2023-08-30T02:27:06;12.90;1.00
56542;DHT22;42438;53.174;6.730;2023-08-30T02:29:36;12.90;1.00
56542;DHT22;42438;53.174;6.730;2023-08-30T02:32:07;12.80;1.00
56542;DHT22;42438;53.174;6.730;2023-08-30T02:34:37;12.80;1.00
56542;DHT22;42438;53.174;6.730;2023-08-30T02:37:08;12.90;1.00
56542;DHT22;42438;53.174;6.730;2023-08-30T02:39:40;12.80;1.00
56542;DHT22;42438;53.174;6.730;2023-08-30T02:42:11;12.80;1.00
56542;DHT22;42438;53.174;6.730;2023-08-30T02:44:41;12.80;1.00
56542;DHT22;42438;53.174;6.730;2023-08-30T02:47:12;12.80;1.00
56542;DHT22;42438;53.174;6.730;2023-08-30T02:49:43;12.80;1.00
56542;DHT22;42438;53.174;6.730;2023-08-30T02:52:13;12.70;1.00
56542;DHT22;42438;53.174;6.730;2023-08-30T02:54:44;12.80;1.00
56542;DHT22;42438;53.174;6.730;2023-08-30T02:57:15;12.80;1.00
56542;DHT22;42438;53.174;6.730;2023-08-30T02:59:45;12.70;1.00
56542;DHT22;42438;53.174;6.730;2023-08-30T03:02:16;12.70;1.00
56542;DHT22;42438;53.174;6.730;2023-08-30T03:04:47;12.70;1.00
56542;DHT22;42438;53.174;6.730;2023-08-30T03:07:17;12.70;1.00
56542;DHT22;42438;53.174;6.730;2023-08-30T03:09:52;12.70;1.00
56542;DHT22;42438;53.174;6.730;2023-08-30T03:12:23;12.70;1.00
56542;DHT22;42438;53.174;6.730;2023-08-30T03:14:54;12.80;1.00
56542;DHT22;42438;53.174;6.730;2023-08-30T03:17:24;12.70;1.00
56542;DHT22;42438;53.174;6.730;2023-08-30T03:19:55;12.70;99.90
56542;DHT22;42438;53.174;6.730;2023-08-30T03:22:26;12.60;99.90
56542;DHT22;42438;53.174;6.730;2023-08-30T03:24:56;12.60;99.90
56542;DHT22;42438;53.174;6.730;2023-08-30T03:27:27;12.60;99.90
56542;DHT22;42438;53.174;6.730;2023-08-30T03:29:58;12.60;99.90
56542;DHT22;42438;53.174;6.730;2023-08-30T03:32:29;12.60;99.90
56542;DHT22;42438;53.174;6.730;2023-08-30T03:35:00;12.50;99.90
56542;DHT22;42438;53.174;6.730;2023-08-30T03:37:31;12.50;99.90
56542;DHT22;42438;53.174;6.730;2023-08-30T03:40:02;12.50;99.90
56542;DHT22;42438;53.174;6.730;2023-08-30T03:42:35;12.40;99.90
56542;DHT22;42438;53.174;6.730;2023-08-30T03:45:06;12.50;99.90
56542;DHT22;42438;53.174;6.730;2023-08-30T03:47:37;12.40;99.90
56542;DHT22;42438;53.174;6.730;2023-08-30T03:50:07;12.30;99.90
56542;DHT22;42438;53.174;6.730;2023-08-30T03:52:39;12.30;99.90
56542;DHT22;42438;53.174;6.730;2023-08-30T03:55:10;12.20;99.90
56542;DHT22;42438;53.174;6.730;2023-08-30T03:57:40;12.20;99.90
56542;DHT22;42438;53.174;6.730;2023-08-30T04:00:12;12.20;99.90
56542;DHT22;42438;53.174;6.730;2023-08-30T04:02:42;12.10;99.90
56542;DHT22;42438;53.174;6.730;2023-08-30T04:05:14;12.10;99.90
56542;DHT22;42438;53.174;6.730;2023-08-30T04:07:45;12.00;99.90
56542;DHT22;42438;53.174;6.730;2023-08-30T04:10:16;11.90;99.90
56542;DHT22;42438;53.174;6.730;2023-08-30T04:12:46;11.90;99.90
56542;DHT22;42438;53.174;6.730;2023-08-30T04:15:17;12.00;99.90
56542;DHT22;42438;53.174;6.730;2023-08-30T04:17:48;11.90;99.90
56542;DHT22;42438;53.174;6.730;2023-08-30T04:20:18;11.90;1.00
56542;DHT22;42438;53.174;6.730;2023-08-30T04:22:49;11.80;1.00
56542;DHT22;42438;53.174;6.730;2023-08-30T04:25:19;11.80;1.00
56542;DHT22;42438;53.174;6.730;2023-08-30T04:27:50;11.80;1.00
56542;DHT22;42438;53.174;6.730;2023-08-30T04:30:21;11.80;1.00
56542;DHT22;42438;53.174;6.730;2023-08-30T04:32:51;11.80;1.00
56542;DHT22;42438;53.174;6.730;2023-08-30T04:35:22;11.90;1.00
56542;DHT22;42438;53.174;6.730;2023-08-30T04:37:53;11.80;1.00
56542;DHT22;42438;53.174;6.730;2023-08-30T04:40:24;11.80;1.00
56542;DHT22;42438;53.174;6.730;2023-08-30T04:42:54;11.80;1.00
56542;DHT22;42438;53.174;6.730;2023-08-30T04:45:26;11.80;1.00
56542;DHT22;42438;53.174;6.730;2023-08-30T04:47:56;11.70;1.00
56542;DHT22;42438;53.174;6.730;2023-08-30T04:50:27;11.70;1.00
56542;DHT22;42438;53.174;6.730;2023-08-30T04:52:58;11.80;1.00
56542;DHT22;42438;53.174;6.730;2023-08-30T04:55:29;11.70;1.00
56542;DHT22;42438;53.174;6.730;2023-08-30T04:58:00;11.70;1.00
56542;DHT22;42438;53.174;6.730;2023-08-30T05:00:30;11.70;1.00
56542;DHT22;42438;53.174;6.730;2023-08-30T05:03:01;11.70;1.00
56542;DHT22;42438;53.174;6.730;2023-08-30T05:05:32;11.80;1.00
56542;DHT22;42438;53.174;6.730;2023-08-30T05:08:05;11.80;1.00
56542;DHT22;42438;53.174;6.730;2023-08-30T05:10:35;11.80;1.00
56542;DHT22;42438;53.174;6.730;2023-08-30T05:13:06;11.80;1.00
56542;DHT22;42438;53.174;6.730;2023-08-30T05:15:37;11.80;1.00
56542;DHT22;42438;53.174;6.730;2023-08-30T05:18:07;11.80;1.00
56542;DHT22;42438;53.174;6.730;2023-08-30T05:20:38;11.80;1.00
56542;DHT22;42438;53.174;6.730;2023-08-30T05:23:09;11.80;1.00
56542;DHT22;42438;53.174;6.730;2023-08-30T05:25:39;11.90;1.00
56542;DHT22;42438;53.174;6.730;2023-08-30T05:28:10;12.00;1.00
56542;DHT22;42438;53.174;6.730;2023-08-30T05:30:42;12.00;1.00
56542;DHT22;42438;53.174;6.730;2023-08-30T05:33:13;12.10;1.00
56542;DHT22;42438;53.174;6.730;2023-08-30T05:35:44;12.00;1.00
56542;DHT22;42438;53.174;6.730;2023-08-30T05:38:15;12.10;99.90
56542;DHT22;42438;53.174;6.730;2023-08-30T05:40:46;12.20;99.90
56542;DHT22;42438;53.174;6.730;2023-08-30T05:43:16;12.10;99.90
56542;DHT22;42438;53.174;6.730;2023-08-30T05:45:48;12.20;99.90
56542;DHT22;42438;53.174;6.730;2023-08-30T05:48:19;12.20;99.90
56542;DHT22;42438;53.174;6.730;2023-08-30T05:50:49;12.20;99.90
56542;DHT22;42438;53.174;6.730;2023-08-30T05:53:20;12.40;99.90
56542;DHT22;42438;53.174;6.730;2023-08-30T05:55:51;12.40;99.90
56542;DHT22;42438;53.174;6.730;2023-08-30T05:58:21;12.40;99.90
56542;DHT22;42438;53.174;6.730;2023-08-30T06:00:52;12.50;99.90
56542;DHT22;42438;53.174;6.730;2023-08-30T06:03:23;12.60;99.90
56542;DHT22;42438;53.174;6.730;2023-08-30T06:05:53;12.60;99.90
56542;DHT22;42438;53.174;6.730;2023-08-30T06:08:24;12.70;99.90
56542;DHT22;42438;53.174;6.730;2023-08-30T06:10:55;12.80;99.90
56542;DHT22;42438;53.174;6.730;2023-08-30T06:13:26;12.80;99.90
56542;DHT22;42438;53.174;6.730;2023-08-30T06:15:56;12.80;99.90
56542;DHT22;42438;53.174;6.730;2023-08-30T06:18:30;12.90;99.90
56542;DHT22;42438;53.174;6.730;2023-08-30T06:21:01;13.00;99.90
56542;DHT22;42438;53.174;6.730;2023-08-30T06:23:33;13.00;99.90
56542;DHT22;42438;53.174;6.730;2023-08-30T06:26:04;13.10;99.90
56542;DHT22;42438;53.174;6.730;2023-08-30T06:28:35;13.20;99.90
56542;DHT22;42438;53.174;6.730;2023-08-30T06:31:06;13.20;99.90
56542;DHT22;42438;53.174;6.730;2023-08-30T06:33:36;13.30;99.90
56542;DHT22;42438;53.174;6.730;2023-08-30T06:36:09;13.40;99.90
56542;DHT22;42438;53.174;6.730;2023-08-30T06:38:41;13.50;99.90
56542;DHT22;42438;53.174;6.730;2023-08-30T06:41:12;13.70;99.90
56542;DHT22;42438;53.174;6.730;2023-08-30T06:43:43;13.80;99.90
56542;DHT22;42438;53.174;6.730;2023-08-30T06:46:14;13.90;99.90
56542;DHT22;42438;53.174;6.730;2023-08-30T06:48:44;14.00;1.60
56542;DHT22;42438;53.174;6.730;2023-08-30T06:51:15;14.20;1.00
56542;DHT22;42438;53.174;6.730;2023-08-30T06:53:46;14.30;1.00
56542;DHT22;42438;53.174;6.730;2023-08-30T06:56:17;14.50;1.00
56542;DHT22;42438;53.174;6.730;2023-08-30T06:58:48;14.60;99.90
56542;DHT22;42438;53.174;6.730;2023-08-30T07:01:18;14.60;1.00
56542;DHT22;42438;53.174;6.730;2023-08-30T07:03:49;14.70;99.90
56542;DHT22;42438;53.174;6.730;2023-08-30T07:06:20;14.70;99.90
56542;DHT22;42438;53.174;6.730;2023-08-30T07:08:51;14.70;71.20
56542;DHT22;42438;53.174;6.730;2023-08-30T07:11:21;14.70;1.00
56542;DHT22;42438;53.174;6.730;2023-08-30T07:13:52;14.80;1.00
56542;DHT22;42438;53.174;6.730;2023-08-30T07:16:23;14.80;99.90
56542;DHT22;42438;53.174;6.730;2023-08-30T07:18:53;14.90;99.90
56542;DHT22;42438;53.174;6.730;2023-08-30T07:21:24;15.00;1.00
56542;DHT22;42438;53.174;6.730;2023-08-30T07:23:55;15.00;1.00
56542;DHT22;42438;53.174;6.730;2023-08-30T07:26:26;15.10;1.00
56542;DHT22;42438;53.174;6.730;2023-08-30T07:28:56;15.20;99.90
56542;DHT22;42438;53.174;6.730;2023-08-30T07:31:27;15.30;99.90
56542;DHT22;42438;53.174;6.730;2023-08-30T07:33:58;15.30;1.00
56542;DHT22;42438;53.174;6.730;2023-08-30T07:36:30;15.30;99.90
56542;DHT22;42438;53.174;6.730;2023-08-30T07:39:03;15.30;1.00
56542;DHT22;42438;53.174;6.730;2023-08-30T07:41:34;15.40;1.00
56542;DHT22;42438;53.174;6.730;2023-08-30T07:44:05;15.40;99.90
56542;DHT22;42438;53.174;6.730;2023-08-30T07:46:35;15.40;99.90
56542;DHT22;42438;53.174;6.730;2023-08-30T07:49:06;15.50;99.90
56542;DHT22;42438;53.174;6.730;2023-08-30T07:51:36;15.60;99.90
56542;DHT22;42438;53.174;6.730;2023-08-30T07:54:07;15.60;99.90
56542;DHT22;42438;53.174;6.730;2023-08-30T07:56:38;15.70;1.00
56542;DHT22;42438;53.174;6.730;2023-08-30T07:59:08;15.80;99.90
56542;DHT22;42438;53.174;6.730;2023-08-30T08:01:40;16.00;99.90
56542;DHT22;42438;53.174;6.730;2023-08-30T08:04:10;16.10;99.90
56542;DHT22;42438;53.174;6.730;2023-08-30T08:06:41;16.20;99.90
56542;DHT22;42438;53.174;6.730;2023-08-30T08:09:12;16.30;38.10
56542;DHT22;42438;53.174;6.730;2023-08-30T08:11:42;16.30;1.00
56542;DHT22;42438;53.174;6.730;2023-08-30T08:14:14;16.30;99.90
56542;DHT22;42438;53.174;6.730;2023-08-30T08:16:44;16.30;99.90
56542;DHT22;42438;53.174;6.730;2023-08-30T08:19:15;16.20;99.90
56542;DHT22;42438;53.174;6.730;2023-08-30T08:21:46;16.20;99.90
56542;DHT22;42438;53.174;6.730;2023-08-30T08:24:17;16.20;99.90
56542;DHT22;42438;53.174;6.730;2023-08-30T08:26:47;16.30;99.90
56542;DHT22;42438;53.174;6.730;2023-08-30T08:29:18;16.30;99.90
56542;DHT22;42438;53.174;6.730;2023-08-30T08:31:49;16.40;99.90
56542;DHT22;42438;53.174;6.730;2023-08-30T08:34:19;16.40;99.90
56542;DHT22;42438;53.174;6.730;2023-08-30T08:36:50;16.40;99.90
56542;DHT22;42438;53.174;6.730;2023-08-30T08:39:21;16.50;99.90
56542;DHT22;42438;53.174;6.730;2023-08-30T08:41:52;16.50;99.90
56542;DHT22;42438;53.174;6.730;2023-08-30T08:44:26;16.50;99.90
56542;DHT22;42438;53.174;6.730;2023-08-30T08:46:59;16.60;99.90
56542;DHT22;42438;53.174;6.730;2023-08-30T08:49:31;16.60;99.90
56542;DHT22;42438;53.174;6.730;2023-08-30T08:52:02;16.70;99.90
56542;DHT22;42438;53.174;6.730;2023-08-30T08:54:34;16.80;99.90
56542;DHT22;42438;53.174;6.730;2023-08-30T08:57:08;16.90;99.90
56542;DHT22;42438;53.174;6.730;2023-08-30T08:59:39;17.00;99.90
56542;DHT22;42438;53.174;6.730;2023-08-30T09:02:12;17.10;99.90
56542;DHT22;42438;53.174;6.730;2023-08-30T09:04:44;17.20;99.90
56542;DHT22;42438;53.174;6.730;2023-08-30T09:07:14;17.20;99.90
56542;DHT22;42438;53.174;6.730;2023-08-30T09:09:46;17.30;99.90
56542;DHT22;42438;53.174;6.730;2023-08-30T09:12:17;17.40;99.90
56542;DHT22;42438;53.174;6.730;2023-08-30T09:14:55;17.40;99.90
56542;DHT22;42438;53.174;6.730;2023-08-30T09:17:38;17.40;99.90
56542;DHT22;42438;53.174;6.730;2023-08-30T09:20:10;17.40;90.00
56542;DHT22;42438;53.174;6.730;2023-08-30T09:22:42;17.30;94.60
56542;DHT22;42438;53.174;6.730;2023-08-30T09:25:24;17.30;94.30
56542;DHT22;42438;53.174;6.730;2023-08-30T09:27:58;17.20;99.90
56542;DHT22;42438;53.174;6.730;2023-08-30T09:30:29;17.20;99.20
56542;DHT22;42438;53.174;6.730;2023-08-30T09:33:02;17.10;92.70
56542;DHT22;42438;53.174;6.730;2023-08-30T09:35:43;17.00;94.50
56542;DHT22;42438;53.174;6.730;2023-08-30T09:38:20;17.00;92.30
56542;DHT22;42438;53.174;6.730;2023-08-30T09:40:52;16.90;96.90
56542;DHT22;42438;53.174;6.730;2023-08-30T09:43:23;16.90;99.90
56542;DHT22;42438;53.174;6.730;2023-08-30T09:45:54;16.80;99.90
56542;DHT22;42438;53.174;6.730;2023-08-30T09:48:28;16.80;99.90
56542;DHT22;42438;53.174;6.730;2023-08-30T09:51:01;16.80;99.90
56542;DHT22;42438;53.174;6.730;2023-08-30T09:53:40;16.70;99.90
56542;DHT22;42438;53.174;6.730;2023-08-30T09:56:13;16.70;99.90
56542;DHT22;42438;53.174;6.730;2023-08-30T09:58:44;16.50;99.90
56542;DHT22;42438;53.174;6.730;2023-08-30T10:01:15;16.40;99.90
56542;DHT22;42438;53.174;6.730;2023-08-30T10:03:47;16.30;99.90
56542;DHT22;42438;53.174;6.730;2023-08-30T10:06:18;16.20;99.90
56542;DHT22;42438;53.174;6.730;2023-08-30T10:08:51;16.20;99.90
56542;DHT22;42438;53.174;6.730;2023-08-30T10:11:24;16.10;99.90
56542;DHT22;42438;53.174;6.730;2023-08-30T10:13:55;16.00;99.90
56542;DHT22;42438;53.174;6.730;2023-08-30T10:16:26;16.00;1.00
56542;DHT22;42438;53.174;6.730;2023-08-30T10:19:05;16.00;1.00
56542;DHT22;42438;53.174;6.730;2023-08-30T10:21:37;16.00;99.40
56542;DHT22;42438;53.174;6.730;2023-08-30T10:24:12;16.10;99.90
56542;DHT22;42438;53.174;6.730;2023-08-30T10:26:45;16.30;1.00
56542;DHT22;42438;53.174;6.730;2023-08-30T10:29:17;16.50;1.00
56542;DHT22;42438;53.174;6.730;2023-08-30T10:31:49;16.80;99.90
56542;DHT22;42438;53.174;6.730;2023-08-30T10:34:20;17.00;99.90
56542;DHT22;42438;53.174;6.730;2023-08-30T10:37:03;17.50;99.90
56542;DHT22;42438;53.174;6.730;2023-08-30T10:39:41;17.90;99.90
56542;DHT22;42438;53.174;6.730;2023-08-30T10:42:13;18.20;99.90
56542;DHT22;42438;53.174;6.730;2023-08-30T10:45:05;18.30;99.90
56542;DHT22;42438;53.174;6.730;2023-08-30T10:47:37;18.30;99.90
56542;DHT22;42438;53.174;6.730;2023-08-30T10:50:10;18.30;99.90
56542;DHT22;42438;53.174;6.730;2023-08-30T10:52:41;18.40;99.90
56542;DHT22;42438;53.174;6.730;2023-08-30T10:55:14;18.40;95.70
56542;DHT22;42438;53.174;6.730;2023-08-30T10:57:46;18.50;92.10
56542;DHT22;42438;53.174;6.730;2023-08-30T11:00:20;18.50;86.20
56542;DHT22;42438;53.174;6.730;2023-08-30T11:02:52;18.50;88.70
56542;DHT22;42438;53.174;6.730;2023-08-30T11:05:26;18.60;85.60
56542;DHT22;42438;53.174;6.730;2023-08-30T11:07:58;18.80;82.00
56542;DHT22;42438;53.174;6.730;2023-08-30T11:10:29;18.80;64.50
56542;DHT22;42438;53.174;6.730;2023-08-30T11:13:01;18.80;47.30
56542;DHT22;42438;53.174;6.730;2023-08-30T11:15:31;18.80;47.60
56542;DHT22;42438;53.174;6.730;2023-08-30T11:18:03;18.80;44.10
56542;DHT22;42438;53.174;6.730;2023-08-30T11:20:34;18.70;45.10
56542;DHT22;42438;53.174;6.730;2023-08-30T11:23:05;18.60;38.80
56542;DHT22;42438;53.174;6.730;2023-08-30T11:25:35;18.40;41.80
56542;DHT22;42438;53.174;6.730;2023-08-30T11:28:06;18.40;48.00
56542;DHT22;42438;53.174;6.730;2023-08-30T11:30:40;18.20;41.60
56542;DHT22;42438;53.174;6.730;2023-08-30T11:33:10;18.20;47.30
56542;DHT22;42438;53.174;6.730;2023-08-30T11:35:41;18.30;56.40
56542;DHT22;42438;53.174;6.730;2023-08-30T11:38:13;18.40;66.00
56542;DHT22;42438;53.174;6.730;2023-08-30T11:40:44;18.50;62.20
56542;DHT22;42438;53.174;6.730;2023-08-30T11:43:15;18.50;49.80
56542;DHT22;42438;53.174;6.730;2023-08-30T11:45:46;18.60;47.80
56542;DHT22;42438;53.174;6.730;2023-08-30T11:48:17;18.60;45.50
56542;DHT22;42438;53.174;6.730;2023-08-30T11:50:47;18.70;47.00
56542;DHT22;42438;53.174;6.730;2023-08-30T11:53:18;18.60;46.40
56542;DHT22;42438;53.174;6.730;2023-08-30T11:55:49;18.60;41.30
56542;DHT22;42438;53.174;6.730;2023-08-30T11:58:20;18.50;39.20
56542;DHT22;42438;53.174;6.730;2023-08-30T12:00:53;18.30;31.60
56542;DHT22;42438;53.174;6.730;2023-08-30T12:03:29;18.10;38.00
56542;DHT22;42438;53.174;6.730;2023-08-30T12:06:00;18.00;45.10
56542;DHT22;42438;53.174;6.730;2023-08-30T12:08:32;17.80;49.70
56542;DHT22;42438;53.174;6.730;2023-08-30T12:11:02;17.60;59.40
56542;DHT22;42438;53.174;6.730;2023-08-30T12:13:34;17.50;85.00
56542;DHT22;42438;53.174;6.730;2023-08-30T12:16:05;17.30;99.90
56542;DHT22;42438;53.174;6.730;2023-08-30T12:18:35;17.10;99.90
56542;DHT22;42438;53.174;6.730;2023-08-30T12:21:07;17.00;99.90
56542;DHT22;42438;53.174;6.730;2023-08-30T12:23:38;16.90;99.90
56542;DHT22;42438;53.174;6.730;2023-08-30T12:26:10;16.70;1.00
56542;DHT22;42438;53.174;6.730;2023-08-30T12:28:41;16.70;99.90
56542;DHT22;42438;53.174;6.730;2023-08-30T12:31:14;16.60;99.90
56542;DHT22;42438;53.174;6.730;2023-08-30T12:33:45;16.50;1.00
56542;DHT22;42438;53.174;6.730;2023-08-30T12:36:15;16.50;99.90
56542;DHT22;42438;53.174;6.730;2023-08-30T12:38:46;16.50;99.90
56542;DHT22;42438;53.174;6.730;2023-08-30T12:41:17;16.40;1.00
56542;DHT22;42438;53.174;6.730;2023-08-30T12:43:48;16.30;99.90
56542;DHT22;42438;53.174;6.730;2023-08-30T12:46:18;16.40;99.90
56542;DHT22;42438;53.174;6.730;2023-08-30T12:48:49;16.30;59.00
56542;DHT22;42438;53.174;6.730;2023-08-30T12:51:20;16.30;1.00
56542;DHT22;42438;53.174;6.730;2023-08-30T12:53:50;16.30;99.90
56542;DHT22;42438;53.174;6.730;2023-08-30T12:56:21;16.30;99.90
56542;DHT22;42438;53.174;6.730;2023-08-30T12:58:52;16.20;1.00
56542;DHT22;42438;53.174;6.730;2023-08-30T13:01:22;16.10;1.00
56542;DHT22;42438;53.174;6.730;2023-08-30T13:03:54;16.10;99.90
56542;DHT22;42438;53.174;6.730;2023-08-30T13:06:25;16.00;1.00
56542;DHT22;42438;53.174;6.730;2023-08-30T13:08:56;16.00;99.90
56542;DHT22;42438;53.174;6.730;2023-08-30T13:11:27;15.90;1.00
56542;DHT22;42438;53.174;6.730;2023-08-30T13:13:58;15.90;1.00
56542;DHT22;42438;53.174;6.730;2023-08-30T13:16:29;15.90;99.90
56542;DHT22;42438;53.174;6.730;2023-08-30T13:19:00;15.80;90.50
56542;DHT22;42438;53.174;6.730;2023-08-30T13:21:31;15.80;1.00
56542;DHT22;42438;53.174;6.730;2023-08-30T13:24:01;15.70;99.90
56542;DHT22;42438;53.174;6.730;2023-08-30T13:26:33;15.80;1.00
56542;DHT22;42438;53.174;6.730;2023-08-30T13:29:04;15.70;81.90
56542;DHT22;42438;53.174;6.730;2023-08-30T13:31:34;15.80;99.90
56542;DHT22;42438;53.174;6.730;2023-08-30T13:34:05;15.80;99.90
56542;DHT22;42438;53.174;6.730;2023-08-30T13:36:35;15.70;99.90
56542;DHT22;42438;53.174;6.730;2023-08-30T13:39:07;15.60;1.00
56542;DHT22;42438;53.174;6.730;2023-08-30T13:41:38;15.60;90.20
56542;DHT22;42438;53.174;6.730;2023-08-30T13:44:08;15.50;99.90
56542;DHT22;42438;53.174;6.730;2023-08-30T13:46:39;15.40;99.90
56542;DHT22;42438;53.174;6.730;2023-08-30T13:49:10;15.40;99.90
56542;DHT22;42438;53.174;6.730;2023-08-30T13:51:41;15.40;1.00
56542;DHT22;42438;53.174;6.730;2023-08-30T13:54:12;15.20;1.00
56542;DHT22;42438;53.174;6.730;2023-08-30T13:56:43;15.20;1.00
56542;DHT22;42438;53.174;6.730;2023-08-30T13:59:13;15.10;1.00
56542;DHT22;42438;53.174;6.730;2023-08-30T14:01:44;15.10;1.00
56542;DHT22;42438;53.174;6.730;2023-08-30T14:04:15;15.10;1.00
56542;DHT22;42438;53.174;6.730;2023-08-30T14:06:46;15.00;16.20
56542;DHT22;42438;53.174;6.730;2023-08-30T14:09:17;14.90;99.90
56542;DHT22;42438;53.174;6.730;2023-08-30T14:11:48;14.90;99.90
56542;DHT22;42438;53.174;6.730;2023-08-30T14:14:18;14.80;99.90
56542;DHT22;42438;53.174;6.730;2023-08-30T14:16:49;14.80;99.90
56542;DHT22;42438;53.174;6.730;2023-08-30T14:19:20;14.80;99.90
56542;DHT22;42438;53.174;6.730;2023-08-30T14:21:50;14.60;99.90
56542;DHT22;42438;53.174;6.730;2023-08-30T14:24:24;14.60;99.90
56542;DHT22;42438;53.174;6.730;2023-08-30T14:26:55;14.50;99.90
56542;DHT22;42438;53.174;6.730;2023-08-30T14:29:26;14.50;99.90
56542;DHT22;42438;53.174;6.730;2023-08-30T14:31:56;14.40;99.90
56542;DHT22;42438;53.174;6.730;2023-08-30T14:34:27;14.50;99.90
56542;DHT22;42438;53.174;6.730;2023-08-30T14:36:58;14.40;99.90
56542;DHT22;42438;53.174;6.730;2023-08-30T14:39:28;14.50;99.90
56542;DHT22;42438;53.174;6.730;2023-08-30T14:41:59;14.50;99.90
56542;DHT22;42438;53.174;6.730;2023-08-30T14:44:29;14.50;99.90
56542;DHT22;42438;53.174;6.730;2023-08-30T14:47:00;14.50;99.90
56542;DHT22;42438;53.174;6.730;2023-08-30T14:49:31;14.60;99.90
56542;DHT22;42438;53.174;6.730;2023-08-30T14:52:04;14.70;99.90
56542;DHT22;42438;53.174;6.730;2023-08-30T14:54:35;14.80;99.90
56542;DHT22;42438;53.174;6.730;2023-08-30T14:57:07;14.80;99.90
56542;DHT22;42438;53.174;6.730;2023-08-30T14:59:37;14.70;99.90
56542;DHT22;42438;53.174;6.730;2023-08-30T15:02:08;14.80;99.90
56542;DHT22;42438;53.174;6.730;2023-08-30T15:04:39;14.80;99.90
56542;DHT22;42438;53.174;6.730;2023-08-30T15:07:10;14.90;99.90
56542;DHT22;42438;53.174;6.730;2023-08-30T15:09:41;15.00;99.90
56542;DHT22;42438;53.174;6.730;2023-08-30T15:12:11;15.10;99.90
56542;DHT22;42438;53.174;6.730;2023-08-30T15:14:42;15.30;99.90
56542;DHT22;42438;53.174;6.730;2023-08-30T15:17:14;15.40;99.90
56542;DHT22;42438;53.174;6.730;2023-08-30T15:19:45;15.60;99.90
56542;DHT22;42438;53.174;6.730;2023-08-30T15:22:15;15.60;99.90
56542;DHT22;42438;53.174;6.730;2023-08-30T15:24:46;15.70;99.90
56542;DHT22;42438;53.174;6.730;2023-08-30T15:27:17;15.80;99.90
56542;DHT22;42438;53.174;6.730;2023-08-30T15:29:47;15.80;99.90
56542;DHT22;42438;53.174;6.730;2023-08-30T15:32:22;15.90;99.90
56542;DHT22;42438;53.174;6.730;2023-08-30T15:34:54;15.90;99.90
56542;DHT22;42438;53.174;6.730;2023-08-30T15:37:25;16.00;99.90
56542;DHT22;42438;53.174;6.730;2023-08-30T15:40:00;16.00;99.90
56542;DHT22;42438;53.174;6.730;2023-08-30T15:42:35;16.00;99.90
56542;DHT22;42438;53.174;6.730;2023-08-30T15:45:06;16.20;99.90
56542;DHT22;42438;53.174;6.730;2023-08-30T15:47:37;16.40;99.90
56542;DHT22;42438;53.174;6.730;2023-08-30T15:50:08;16.70;99.90
56542;DHT22;42438;53.174;6.730;2023-08-30T15:52:38;17.10;99.90
56542;DHT22;42438;53.174;6.730;2023-08-30T15:55:09;17.40;99.90
56542;DHT22;42438;53.174;6.730;2023-08-30T15:57:40;17.60;99.90
56542;DHT22;42438;53.174;6.730;2023-08-30T16:00:11;17.60;1.00
56542;DHT22;42438;53.174;6.730;2023-08-30T16:02:42;17.50;1.00
56542;DHT22;42438;53.174;6.730;2023-08-30T16:05:13;17.50;1.00